Time;durP1;ratioP1;P1;durP2;ratioP2;P2;SDS_P1;SDS_P2;PMS_P1;PMS_P2;Temp;Humidity;BMP_temperature;BMP_pressure;BME280_temperature;BME280_humidity;BME280_pressure;Samples;Min_cycle;Max_cycle;Signal;HPM_P1;HPM_P2
2020/12/14 00:01:05;;;;;;;60.25;23.90;;;0.20;99.90;;;;;;5074041;28;20119;-83
2020/12/14 00:03:32;;;;;;;54.95;22.63;;;0.20;99.90;;;;;;5091868;28;20016;-82
2020/12/14 00:05:58;;;;;;;63.75;26.42;;;0.20;99.90;;;;;;5093702;28;20140;-83
2020/12/14 00:08:23;;;;;;;58.38;26.95;;;0.30;99.90;;;;;;5088315;28;20037;-83
2020/12/14 00:10:49;;;;;;;54.72;24.38;;;0.30;99.90;;;;;;5073007;28;20500;-83
2020/12/14 00:13:15;;;;;;;51.95;21.08;;;0.30;99.90;;;;;;5072377;28;20024;-84
2020/12/14 00:15:40;;;;;;;58.63;22.10;;;0.30;99.90;;;;;;5072728;28;20056;-83
2020/12/14 00:18:06;;;;;;;46.70;17.98;;;0.30;99.90;;;;;;5088217;28;20024;-83
2020/12/14 00:20:33;;;;;;;57.40;21.35;;;0.30;99.90;;;;;;5068007;28;20093;-83
2020/12/14 00:22:58;;;;;;;46.85;21.98;;;0.30;99.90;;;;;;5071131;28;20024;-84
2020/12/14 00:25:24;;;;;;;104.15;43.25;;;0.30;99.90;;;;;;5072550;28;20493;-84
2020/12/14 00:27:50;;;;;;;134.70;51.40;;;0.30;99.90;;;;;;5054254;28;20012;-83
2020/12/14 00:30:15;;;;;;;126.63;52.75;;;0.20;99.90;;;;;;5072823;28;20435;-84
2020/12/14 00:32:41;;;;;;;69.93;27.02;;;0.20;99.90;;;;;;5088052;28;20024;-83
2020/12/14 00:35:07;;;;;;;117.30;49.47;;;0.20;99.90;;;;;;5092005;28;20052;-84
2020/12/14 00:37:32;;;;;;;96.55;41.33;;;0.20;99.90;;;;;;5074071;28;20070;-84
2020/12/14 00:39:58;;;;;;;90.18;33.70;;;0.20;99.90;;;;;;5093229;28;20031;-84
2020/12/14 00:42:24;;;;;;;68.65;26.45;;;0.20;99.90;;;;;;5092642;28;20024;-83
2020/12/14 00:44:50;;;;;;;78.82;28.27;;;0.30;99.90;;;;;;5093409;28;20016;-84
2020/12/14 00:47:16;;;;;;;63.95;25.33;;;0.30;99.90;;;;;;5074415;28;20020;-84
2020/12/14 00:49:43;;;;;;;65.80;26.50;;;0.30;99.90;;;;;;5084192;28;20021;-84
2020/12/14 00:52:09;;;;;;;69.28;30.42;;;0.30;99.90;;;;;;5072961;28;20020;-83
2020/12/14 00:54:35;;;;;;;75.07;30.10;;;0.30;99.90;;;;;;5054579;28;20048;-84
2020/12/14 00:57:01;;;;;;;69.68;28.17;;;0.30;99.90;;;;;;5071982;28;20487;-84
2020/12/14 00:59:27;;;;;;;87.38;33.03;;;0.30;99.90;;;;;;5072132;28;20070;-84
2020/12/14 01:01:53;;;;;;;81.10;31.00;;;0.30;99.90;;;;;;5076209;28;20020;-83
2020/12/14 01:04:20;;;;;;;78.65;31.65;;;0.30;99.90;;;;;;5082125;28;20036;-84
2020/12/14 01:06:46;;;;;;;77.30;32.55;;;0.30;99.90;;;;;;5089913;28;20028;-83
2020/12/14 01:09:12;;;;;;;76.38;30.33;;;0.30;99.90;;;;;;5076062;28;20406;-83
2020/12/14 01:11:37;;;;;;;77.30;30.10;;;0.30;99.90;;;;;;5076245;28;20021;-83
2020/12/14 01:14:03;;;;;;;59.13;22.80;;;0.30;99.90;;;;;;5076412;28;20028;-83
2020/12/14 01:16:29;;;;;;;60.75;23.63;;;0.30;99.90;;;;;;5076822;28;20036;-82
2020/12/14 01:18:54;;;;;;;60.60;23.85;;;0.30;99.90;;;;;;5092715;28;20112;-83
2020/12/14 01:21:24;;;;;;;63.20;23.85;;;0.30;99.90;;;;;;5097412;28;20024;-81
2020/12/14 01:23:50;;;;;;;67.00;25.98;;;0.30;99.90;;;;;;5096666;28;20095;-83
2020/12/14 01:26:16;;;;;;;60.63;25.52;;;0.30;99.90;;;;;;5096071;28;20036;-83
2020/12/14 01:28:42;;;;;;;55.83;22.75;;;0.40;99.90;;;;;;5096474;28;20016;-82
2020/12/14 01:31:07;;;;;;;63.42;22.88;;;0.40;99.90;;;;;;5096116;28;20451;-83
2020/12/14 01:33:33;;;;;;;53.85;21.95;;;0.40;99.90;;;;;;5095034;28;20034;-83
2020/12/14 01:35:59;;;;;;;53.25;21.98;;;0.40;99.90;;;;;;5096399;28;20075;-84
2020/12/14 01:38:25;;;;;;;56.65;22.48;;;0.40;99.90;;;;;;5094560;28;20039;-83
2020/12/14 01:40:52;;;;;;;51.67;21.52;;;0.40;99.90;;;;;;5096197;28;20044;-84
2020/12/14 01:43:18;;;;;;;52.63;21.80;;;0.40;99.90;;;;;;5095877;28;20099;-83
2020/12/14 01:45:44;;;;;;;59.13;21.50;;;0.40;99.90;;;;;;5097442;28;20104;-84
2020/12/14 01:48:12;;;;;;;47.90;20.70;;;0.40;99.90;;;;;;5098046;28;20060;-83
2020/12/14 01:50:37;;;;;;;56.95;22.17;;;0.40;99.90;;;;;;5096280;28;20016;-84
2020/12/14 01:53:06;;;;;;;68.20;23.02;;;0.40;99.90;;;;;;5095833;28;20028;-83
2020/12/14 01:55:41;;;;;;;58.50;22.33;;;0.40;99.90;;;;;;5095431;28;20024;-83
2020/12/14 01:58:07;;;;;;;56.85;22.77;;;0.40;99.90;;;;;;5095416;28;20583;-84
2020/12/14 02:00:33;;;;;;;62.20;25.33;;;0.40;99.90;;;;;;5096250;28;20028;-83
2020/12/14 02:02:59;;;;;;;67.43;25.85;;;0.40;99.90;;;;;;5094892;28;20362;-83
2020/12/14 02:05:25;;;;;;;66.35;25.30;;;0.30;99.90;;;;;;5075396;28;20028;-83
2020/12/14 02:07:50;;;;;;;84.85;30.00;;;0.30;99.90;;;;;;5092911;28;20027;-83
2020/12/14 02:10:16;;;;;;;71.50;29.17;;;0.30;99.90;;;;;;5076206;28;20028;-83
2020/12/14 02:12:42;;;;;;;57.78;24.65;;;0.30;99.90;;;;;;5074067;28;20020;-84
2020/12/14 02:15:08;;;;;;;66.18;24.17;;;0.30;99.90;;;;;;5075363;28;20029;-84
2020/12/14 02:17:35;;;;;;;63.08;24.40;;;0.30;99.90;;;;;;5076262;28;20118;-84
2020/12/14 02:20:00;;;;;;;63.63;23.30;;;0.30;99.90;;;;;;5091893;28;20039;-86
2020/12/14 02:22:27;;;;;;;58.97;21.63;;;0.30;99.90;;;;;;5076976;28;20036;-87
2020/12/14 02:25:01;;;;;;;61.22;22.90;;;0.30;99.90;;;;;;5091856;28;20107;-86
2020/12/14 02:27:29;;;;;;;67.10;24.08;;;0.30;99.90;;;;;;5074858;28;20048;-87
2020/12/14 02:29:56;;;;;;;56.85;23.23;;;0.20;99.90;;;;;;5075801;28;20017;-86
2020/12/14 02:32:23;;;;;;;70.70;23.17;;;0.30;99.90;;;;;;5092401;28;20489;-86
2020/12/14 02:34:49;;;;;;;58.03;23.95;;;0.30;99.90;;;;;;5066633;28;20493;-86
2020/12/14 02:37:18;;;;;;;63.97;25.48;;;0.30;99.90;;;;;;5092589;28;20040;-86
2020/12/14 02:39:44;;;;;;;73.85;28.48;;;0.30;99.90;;;;;;5094528;28;20026;-86
2020/12/14 02:42:14;;;;;;;63.22;27.10;;;0.30;99.90;;;;;;5076639;28;20452;-86
2020/12/14 02:44:41;;;;;;;70.78;27.27;;;0.30;99.90;;;;;;5095059;28;20050;-86
2020/12/14 02:47:07;;;;;;;60.30;24.15;;;0.40;99.90;;;;;;5077519;28;20020;-88
2020/12/14 02:49:34;;;;;;;64.40;24.27;;;0.40;99.90;;;;;;5094192;28;20028;-86
2020/12/14 02:52:00;;;;;;;61.95;26.85;;;0.40;99.90;;;;;;5076542;28;20032;-86
2020/12/14 02:54:25;;;;;;;66.30;26.75;;;0.30;99.90;;;;;;5095498;28;20497;-86
2020/12/14 02:56:51;;;;;;;81.53;26.08;;;0.30;99.90;;;;;;5094405;28;20051;-86
2020/12/14 02:59:18;;;;;;;62.60;25.08;;;0.40;99.90;;;;;;5094362;28;20028;-86
2020/12/14 03:01:44;;;;;;;64.68;24.80;;;0.30;99.90;;;;;;5110641;28;20417;-87
2020/12/14 03:04:10;;;;;;;57.00;23.60;;;0.30;99.90;;;;;;5109097;28;20020;-85
2020/12/14 03:06:36;;;;;;;58.88;25.27;;;0.40;99.90;;;;;;5094306;28;20551;-87
2020/12/14 03:09:02;;;;;;;69.65;29.75;;;0.40;99.90;;;;;;5094123;28;20091;-85
2020/12/14 03:11:28;;;;;;;82.80;33.33;;;0.30;99.90;;;;;;5077781;28;20020;-85
2020/12/14 03:13:53;;;;;;;80.20;31.98;;;0.30;99.90;;;;;;5095471;28;20073;-87
2020/12/14 03:16:19;;;;;;;69.65;28.20;;;0.30;99.90;;;;;;5094073;28;20486;-87
2020/12/14 03:18:45;;;;;;;64.68;25.13;;;0.30;99.90;;;;;;5075114;28;20431;-87
2020/12/14 03:21:11;;;;;;;68.68;26.08;;;0.30;99.90;;;;;;5092542;28;20032;-85
2020/12/14 03:23:36;;;;;;;75.75;27.35;;;0.30;99.90;;;;;;5074971;28;20102;-86
2020/12/14 03:26:02;;;;;;;67.03;27.48;;;0.20;99.90;;;;;;5092496;28;20032;-86
2020/12/14 03:28:28;;;;;;;64.97;25.38;;;0.30;99.90;;;;;;5091808;28;20051;-86
2020/12/14 03:30:54;;;;;;;79.88;28.60;;;0.20;99.90;;;;;;5092627;28;20032;-85
2020/12/14 03:33:20;;;;;;;79.05;26.85;;;0.20;99.90;;;;;;5094574;28;20028;-86
2020/12/14 03:35:47;;;;;;;71.95;25.17;;;0.20;99.90;;;;;;5073329;28;20039;-85
2020/12/14 03:38:13;;;;;;;80.60;25.85;;;0.20;99.90;;;;;;5088310;28;20524;-86
2020/12/14 03:40:40;;;;;;;73.68;25.35;;;0.20;99.90;;;;;;5076057;28;20032;-86
2020/12/14 03:43:06;;;;;;;90.32;28.40;;;0.10;99.90;;;;;;5075471;28;20031;-86
2020/12/14 03:45:32;;;;;;;65.75;27.27;;;0.20;99.90;;;;;;5093631;28;20088;-86
2020/12/14 03:47:58;;;;;;;74.72;25.50;;;0.10;99.90;;;;;;5093475;28;20036;-86
2020/12/14 03:50:24;;;;;;;66.95;26.65;;;0.20;99.90;;;;;;5074501;28;20057;-86
2020/12/14 03:52:49;;;;;;;77.20;27.65;;;0.20;99.90;;;;;;5094772;28;20376;-87
2020/12/14 03:55:15;;;;;;;80.65;27.17;;;0.20;99.90;;;;;;5093611;28;20051;-88
2020/12/14 03:57:41;;;;;;;83.32;29.50;;;0.20;99.90;;;;;;5093034;28;20046;-87
2020/12/14 04:00:07;;;;;;;86.03;29.48;;;0.20;99.90;;;;;;5064926;28;20108;-86
2020/12/14 04:02:33;;;;;;;80.10;28.13;;;0.20;99.90;;;;;;5073286;28;20016;-86
2020/12/14 04:04:58;;;;;;;90.55;29.88;;;0.20;99.90;;;;;;5070564;28;20232;-87
2020/12/14 04:07:24;;;;;;;92.60;32.35;;;0.20;99.90;;;;;;5094262;28;20049;-87
2020/12/14 04:09:50;;;;;;;93.20;30.30;;;0.20;99.90;;;;;;5074870;28;20024;-87
2020/12/14 04:12:15;;;;;;;81.85;31.33;;;0.20;99.90;;;;;;5094469;28;20098;-87
2020/12/14 04:14:41;;;;;;;96.47;33.40;;;0.20;99.90;;;;;;5095061;28;20039;-87
2020/12/14 04:17:07;;;;;;;99.28;36.45;;;0.20;99.90;;;;;;5080170;28;20036;-86
2020/12/14 04:19:33;;;;;;;90.60;33.13;;;0.20;99.90;;;;;;5087722;28;20019;-86
2020/12/14 04:22:07;;;;;;;99.93;36.08;;;0.20;99.90;;;;;;5075962;28;20031;-87
2020/12/14 04:24:36;;;;;;;84.60;30.95;;;0.20;99.90;;;;;;5093303;28;20492;-88
2020/12/14 04:27:05;;;;;;;86.13;32.03;;;0.20;99.90;;;;;;5094464;28;20031;-87
2020/12/14 04:29:31;;;;;;;99.18;33.10;;;0.20;99.90;;;;;;5093416;28;20474;-87
2020/12/14 04:31:56;;;;;;;107.30;36.08;;;0.20;99.90;;;;;;5073964;28;20107;-87
2020/12/14 04:34:22;;;;;;;99.47;32.55;;;0.20;99.90;;;;;;5107581;28;20473;-86
2020/12/14 04:36:49;;;;;;;106.18;36.45;;;0.20;99.90;;;;;;5094560;28;20466;-87
2020/12/14 04:39:15;;;;;;;102.75;34.13;;;0.20;99.90;;;;;;5093442;28;20023;-86
2020/12/14 04:41:41;;;;;;;95.22;33.65;;;0.30;99.90;;;;;;5093173;28;20027;-87
2020/12/14 04:44:11;;;;;;;98.35;32.67;;;0.30;99.90;;;;;;5074917;28;20432;-87
2020/12/14 04:46:37;;;;;;;93.35;31.05;;;0.30;99.90;;;;;;5092472;28;20012;-87
2020/12/14 04:49:04;;;;;;;87.47;30.65;;;0.30;99.90;;;;;;5073233;28;20040;-86
2020/12/14 04:51:32;;;;;;;104.68;32.38;;;0.30;99.90;;;;;;5073025;28;20023;-86
2020/12/14 04:54:00;;;;;;;82.95;29.20;;;0.30;99.90;;;;;;5085118;28;20075;-87
2020/12/14 04:56:27;;;;;;;102.70;30.42;;;0.30;99.90;;;;;;5083968;28;20051;-87
2020/12/14 04:58:55;;;;;;;86.68;31.92;;;0.30;99.90;;;;;;5092761;28;20085;-88
2020/12/14 05:01:21;;;;;;;82.32;31.13;;;0.30;99.90;;;;;;5093771;28;20031;-87
2020/12/14 05:03:46;;;;;;;98.53;34.15;;;0.30;99.90;;;;;;5098624;28;20107;-87
2020/12/14 05:06:12;;;;;;;99.10;33.63;;;0.30;99.90;;;;;;5079232;28;20588;-86
2020/12/14 05:08:38;;;;;;;108.65;35.58;;;0.40;99.90;;;;;;5089613;28;20024;-86
2020/12/14 05:11:04;;;;;;;95.50;32.00;;;0.40;99.90;;;;;;5108145;28;20021;-86
2020/12/14 05:13:30;;;;;;;106.57;34.38;;;0.40;99.90;;;;;;5108024;28;20127;-87
2020/12/14 05:15:56;;;;;;;113.15;35.15;;;0.40;99.90;;;;;;5092842;28;20025;-87
2020/12/14 05:18:23;;;;;;;103.03;34.28;;;0.40;99.90;;;;;;5070882;28;20281;-86
2020/12/14 05:20:59;;;;;;;122.30;38.17;;;0.30;99.90;;;;;;5074013;28;20021;-87
2020/12/14 05:23:26;;;;;;;108.97;35.22;;;0.30;99.90;;;;;;5076160;28;20104;-87
2020/12/14 05:26:03;;;;;;;105.35;34.63;;;0.30;99.90;;;;;;5089932;28;20025;-86
2020/12/14 05:28:29;;;;;;;103.15;34.50;;;0.40;99.90;;;;;;5090806;28;20024;-87
2020/12/14 05:30:55;;;;;;;125.47;39.53;;;0.40;99.90;;;;;;5092237;28;20103;-86
2020/12/14 05:33:23;;;;;;;126.35;44.17;;;0.40;99.90;;;;;;5091865;28;20103;-87
2020/12/14 05:35:49;;;;;;;153.20;51.13;;;0.40;99.90;;;;;;5091065;28;20074;-87
2020/12/14 05:38:23;;;;;;;163.52;50.38;;;0.40;99.90;;;;;;5091891;28;20040;-86
2020/12/14 05:40:51;;;;;;;117.82;40.22;;;0.40;99.90;;;;;;5090827;28;20112;-87
2020/12/14 05:43:20;;;;;;;97.22;33.80;;;0.40;99.90;;;;;;5093305;28;20024;-85
2020/12/14 05:45:47;;;;;;;88.90;32.53;;;0.40;99.90;;;;;;5092292;28;20024;-87
2020/12/14 05:48:29;;;;;;;96.80;34.03;;;0.40;99.90;;;;;;5074706;28;20059;-86
2020/12/14 05:51:06;;;;;;;105.72;34.10;;;0.40;99.90;;;;;;5097460;28;20028;-86
2020/12/14 05:53:40;;;;;;;94.68;33.00;;;0.40;99.90;;;;;;5095106;28;20145;-87
2020/12/14 05:56:09;;;;;;;97.68;32.83;;;0.40;99.90;;;;;;5096462;28;20036;-86
2020/12/14 05:58:37;;;;;;;106.28;36.40;;;0.40;99.90;;;;;;5095269;28;20023;-86
2020/12/14 06:01:07;;;;;;;102.55;35.92;;;0.40;99.90;;;;;;5096573;28;20035;-86
2020/12/14 06:03:34;;;;;;;96.35;36.90;;;0.40;99.90;;;;;;5095159;28;20027;-87
2020/12/14 06:06:09;;;;;;;112.40;39.30;;;0.40;99.90;;;;;;5095845;28;20034;-86
2020/12/14 06:08:49;;;;;;;97.90;35.67;;;0.40;99.90;;;;;;5091453;28;20501;-85
2020/12/14 06:11:26;;;;;;;102.57;38.72;;;0.40;99.90;;;;;;5078033;28;20534;-86
2020/12/14 06:13:57;;;;;;;108.85;36.65;;;0.40;99.90;;;;;;5075206;28;20159;-86
2020/12/14 06:16:27;;;;;;;108.43;37.85;;;0.50;99.90;;;;;;5091183;28;20058;-86
2020/12/14 06:18:54;;;;;;;116.70;38.20;;;0.50;99.90;;;;;;5076151;28;20111;-88
2020/12/14 06:21:41;;;;;;;120.63;40.95;;;0.50;99.90;;;;;;5081451;28;20103;-85
2020/12/14 06:24:17;;;;;;;125.25;48.63;;;0.50;99.90;;;;;;5057569;28;20032;-88
2020/12/14 06:26:44;;;;;;;125.90;54.10;;;0.50;99.90;;;;;;5075600;28;20027;-87
2020/12/14 06:29:10;;;;;;;116.78;40.55;;;0.50;99.90;;;;;;5076250;28;20462;-87
2020/12/14 06:31:40;;;;;;;114.32;40.38;;;0.50;99.90;;;;;;5081989;28;20051;-87
2020/12/14 06:34:30;;;;;;;117.25;43.05;;;0.50;99.90;;;;;;5094579;28;20151;-88
2020/12/14 06:36:56;;;;;;;135.70;46.78;;;0.50;99.90;;;;;;5094133;28;20111;-87
2020/12/14 06:39:30;;;;;;;126.10;48.67;;;0.50;99.90;;;;;;5076610;28;20058;-83
2020/12/14 06:42:16;;;;;;;137.18;54.58;;;0.50;99.90;;;;;;5094816;28;20031;-84
2020/12/14 06:44:44;;;;;;;127.32;51.78;;;0.50;99.90;;;;;;5077476;28;20040;-85
2020/12/14 06:47:18;;;;;;;121.30;49.95;;;0.50;99.90;;;;;;5094334;28;20370;-86
2020/12/14 06:49:46;;;;;;;117.50;46.35;;;0.50;99.90;;;;;;5076429;28;20520;-86
2020/12/14 06:52:12;;;;;;;141.27;55.25;;;0.50;99.90;;;;;;5094658;28;20028;-88
2020/12/14 06:54:46;;;;;;;130.27;50.95;;;0.50;99.90;;;;;;5070258;28;20058;-85
2020/12/14 06:57:19;;;;;;;109.13;45.92;;;0.50;99.90;;;;;;5077717;28;20081;-85
2020/12/14 06:59:53;;;;;;;96.72;40.15;;;0.50;99.90;;;;;;5075315;28;20023;-86
2020/12/14 07:02:33;;;;;;;102.43;37.28;;;0.50;99.90;;;;;;5094620;28;20047;-86
2020/12/14 07:04:59;;;;;;;88.25;36.80;;;0.50;99.90;;;;;;5076569;28;20020;-87
2020/12/14 07:07:25;;;;;;;88.55;35.75;;;0.60;99.90;;;;;;5094376;28;20085;-86
2020/12/14 07:09:50;;;;;;;96.93;32.78;;;0.60;99.90;;;;;;5093124;28;20024;-87
2020/12/14 07:12:16;;;;;;;92.35;34.05;;;0.60;99.90;;;;;;5088879;28;20058;-85
2020/12/14 07:14:54;;;;;;;132.13;50.00;;;0.60;99.90;;;;;;5093569;28;20584;-86
2020/12/14 07:17:26;;;;;;;151.15;50.97;;;0.60;99.90;;;;;;5075175;28;20040;-86
2020/12/14 07:19:55;;;;;;;113.10;43.72;;;0.50;99.90;;;;;;5073515;28;20061;-86
2020/12/14 07:22:48;;;;;;;110.15;37.22;;;0.60;99.90;;;;;;5093469;28;20462;-86
2020/12/14 07:25:22;;;;;;;100.30;32.10;;;0.60;99.90;;;;;;5093981;28;20093;-86
2020/12/14 07:27:48;;;;;;;92.18;36.20;;;0.60;99.90;;;;;;5096839;28;20032;-86
2020/12/14 07:30:13;;;;;;;162.50;57.88;;;0.70;99.90;;;;;;5094854;28;20057;-85
2020/12/14 07:32:39;;;;;;;171.85;63.28;;;0.60;99.90;;;;;;5094878;28;20043;-87
2020/12/14 07:35:07;;;;;;;129.07;58.92;;;0.60;99.90;;;;;;5078782;28;20046;-86
2020/12/14 07:37:34;;;;;;;149.82;64.13;;;0.60;99.90;;;;;;5093772;28;20119;-85
2020/12/14 07:40:00;;;;;;;144.48;54.42;;;0.60;99.90;;;;;;5092994;28;20099;-85
2020/12/14 07:42:28;;;;;;;97.68;38.42;;;0.60;99.90;;;;;;5094566;28;20047;-86
2020/12/14 07:45:06;;;;;;;91.82;35.45;;;0.60;99.90;;;;;;5093505;28;20028;-85
2020/12/14 07:47:32;;;;;;;101.30;41.03;;;0.70;99.90;;;;;;5093398;28;20016;-85
2020/12/14 07:50:11;;;;;;;116.40;50.35;;;0.70;99.90;;;;;;5091788;28;20087;-84
2020/12/14 07:52:37;;;;;;;105.90;41.33;;;0.70;99.90;;;;;;5074448;28;20104;-84
2020/12/14 07:55:06;;;;;;;114.47;48.40;;;0.70;99.90;;;;;;5073497;28;20032;-85
2020/12/14 07:57:37;;;;;;;111.57;47.45;;;0.70;99.90;;;;;;5073236;28;20028;-85
2020/12/14 08:00:06;;;;;;;120.20;46.30;;;0.70;99.90;;;;;;5074729;28;20520;-85
2020/12/14 08:02:33;;;;;;;110.82;46.20;;;0.80;99.90;;;;;;5072840;28;20039;-85
2020/12/14 08:05:06;;;;;;;132.27;55.65;;;0.80;99.90;;;;;;5086580;28;20110;-85
2020/12/14 08:08:02;;;;;;;114.35;51.33;;;0.80;99.90;;;;;;5075851;28;20355;-85
2020/12/14 08:10:32;;;;;;;113.18;49.85;;;0.90;99.90;;;;;;5093162;28;20032;-85
2020/12/14 08:13:00;;;;;;;127.03;45.75;;;0.90;99.90;;;;;;5075843;28;20016;-86
2020/12/14 08:15:30;;;;;;;130.05;54.70;;;0.90;99.90;;;;;;5093989;28;20036;-86
2020/12/14 08:17:57;;;;;;;149.32;57.88;;;0.90;99.90;;;;;;5108479;28;20484;-86
2020/12/14 08:20:29;;;;;;;114.18;44.83;;;1.00;99.90;;;;;;5093215;28;20108;-86
2020/12/14 08:22:58;;;;;;;106.97;41.80;;;0.90;99.90;;;;;;5109569;28;20020;-85
2020/12/14 08:25:29;;;;;;;105.60;39.20;;;1.00;99.90;;;;;;5093549;28;20457;-86
2020/12/14 08:27:57;;;;;;;81.32;34.40;;;0.90;99.90;;;;;;5093024;28;20103;-86
2020/12/14 08:30:25;;;;;;;92.75;34.70;;;0.90;99.90;;;;;;5094653;28;20024;-86
2020/12/14 08:33:10;;;;;;;90.07;33.85;;;0.90;99.90;;;;;;5108597;28;20020;-86
2020/12/14 08:35:38;;;;;;;100.47;31.80;;;1.00;99.90;;;;;;5093678;28;20032;-85
2020/12/14 08:38:07;;;;;;;86.10;30.35;;;1.00;99.90;;;;;;5093065;28;20040;-86
2020/12/14 08:40:33;;;;;;;79.70;30.90;;;1.00;99.90;;;;;;5072323;28;20149;-85
2020/12/14 08:43:13;;;;;;;92.32;32.90;;;1.10;99.90;;;;;;5092779;28;20031;-86
2020/12/14 08:46:03;;;;;;;90.28;34.45;;;1.10;99.90;;;;;;5092650;28;20027;-85
2020/12/14 08:48:31;;;;;;;108.40;42.03;;;1.10;99.90;;;;;;5074506;28;20028;-86
2020/12/14 08:51:05;;;;;;;86.95;35.65;;;1.10;99.90;;;;;;5092675;28;20016;-86
2020/12/14 08:53:31;;;;;;;80.72;33.72;;;1.10;99.90;;;;;;5091105;28;20099;-86
2020/12/14 08:56:03;;;;;;;96.10;38.83;;;1.10;99.90;;;;;;5074102;28;20009;-84
2020/12/14 08:58:29;;;;;;;83.80;33.83;;;1.10;99.90;;;;;;5092862;28;20072;-86
2020/12/14 09:00:55;;;;;;;97.75;35.00;;;1.20;99.90;;;;;;5087288;28;20020;-86
2020/12/14 09:03:20;;;;;;;125.43;49.58;;;1.20;99.90;;;;;;5074513;28;20610;-86
2020/12/14 09:05:46;;;;;;;207.02;74.28;;;1.20;99.90;;;;;;5091481;28;20028;-86
2020/12/14 09:08:13;;;;;;;221.30;77.28;;;1.30;99.90;;;;;;5091664;28;20021;-85
2020/12/14 09:10:39;;;;;;;96.55;37.80;;;1.30;99.90;;;;;;5091369;28;20543;-85
2020/12/14 09:13:06;;;;;;;81.65;30.30;;;1.30;99.90;;;;;;5073998;28;20038;-86
2020/12/14 09:15:33;;;;;;;67.97;30.00;;;1.30;99.90;;;;;;5091998;28;20039;-85
2020/12/14 09:18:05;;;;;;;89.22;38.15;;;1.30;99.90;;;;;;5092542;28;20089;-85
2020/12/14 09:20:32;;;;;;;124.80;48.10;;;1.40;99.90;;;;;;5082997;28;20078;-85
2020/12/14 09:22:58;;;;;;;102.25;42.80;;;1.40;99.90;;;;;;5076794;28;20016;-85
2020/12/14 09:25:27;;;;;;;116.18;47.92;;;1.50;99.90;;;;;;5078735;28;20051;-85
2020/12/14 09:27:52;;;;;;;81.20;35.25;;;1.50;99.90;;;;;;5096336;28;20044;-87
2020/12/14 09:30:18;;;;;;;97.65;42.63;;;1.50;99.90;;;;;;5079276;28;20059;-88
2020/12/14 09:32:45;;;;;;;128.68;50.83;;;1.50;99.90;;;;;;5090160;28;20032;-86
2020/12/14 09:35:11;;;;;;;167.38;65.65;;;1.50;99.90;;;;;;5095350;28;20024;-87
2020/12/14 09:37:37;;;;;;;107.78;40.42;;;1.50;99.90;;;;;;5078094;28;20055;-87
2020/12/14 09:40:04;;;;;;;80.60;31.88;;;1.50;99.90;;;;;;5077617;28;20063;-86
2020/12/14 09:42:30;;;;;;;137.15;54.20;;;1.40;99.90;;;;;;5112722;28;20071;-87
2020/12/14 09:44:56;;;;;;;165.00;63.90;;;1.50;99.90;;;;;;5096000;28;20090;-85
2020/12/14 09:47:22;;;;;;;105.00;44.75;;;1.50;99.90;;;;;;5112604;28;20077;-86
2020/12/14 09:49:48;;;;;;;145.48;53.30;;;1.50;99.90;;;;;;5094910;28;20103;-86
2020/12/14 09:52:13;;;;;;;156.68;62.72;;;1.50;99.90;;;;;;5095478;28;20020;-86
2020/12/14 09:54:40;;;;;;;82.15;35.75;;;1.50;99.90;;;;;;5096435;28;20024;-85
2020/12/14 09:57:06;;;;;;;132.25;49.63;;;1.50;99.90;;;;;;5095953;28;20035;-86
2020/12/14 09:59:32;;;;;;;161.15;58.88;;;1.60;99.90;;;;;;5097798;28;20028;-87
2020/12/14 10:01:57;;;;;;;223.15;78.00;;;1.50;99.90;;;;;;5096474;28;20351;-87
2020/12/14 10:04:23;;;;;;;139.45;53.92;;;1.60;99.90;;;;;;5095865;28;20607;-85
2020/12/14 10:06:49;;;;;;;105.60;42.20;;;1.60;99.90;;;;;;5095992;28;20024;-86
2020/12/14 10:09:16;;;;;;;183.00;69.35;;;1.60;99.90;;;;;;5077195;28;20433;-86
2020/12/14 10:11:42;;;;;;;220.80;83.32;;;1.60;99.90;;;;;;5111874;28;20107;-86
2020/12/14 10:14:07;;;;;;;188.93;71.95;;;1.70;99.90;;;;;;5095217;28;20028;-86
2020/12/14 10:16:35;;;;;;;119.57;43.03;;;1.70;99.90;;;;;;5079146;28;20035;-87
2020/12/14 10:19:02;;;;;;;105.55;39.17;;;1.70;99.90;;;;;;5076946;28;20024;-86
2020/12/14 10:21:27;;;;;;;86.13;34.03;;;1.70;99.90;;;;;;5097406;28;20031;-87
2020/12/14 10:23:53;;;;;;;96.68;42.00;;;1.70;99.90;;;;;;5095453;28;20024;-86
2020/12/14 10:26:20;;;;;;;85.35;32.75;;;1.80;99.90;;;;;;5095566;28;20024;-86
2020/12/14 10:28:46;;;;;;;79.70;33.67;;;1.80;99.90;;;;;;5095062;28;20020;-86
2020/12/14 10:31:12;;;;;;;78.55;36.00;;;1.90;99.90;;;;;;5095395;28;20020;-84
2020/12/14 10:33:38;;;;;;;119.13;48.90;;;1.90;99.90;;;;;;5076448;28;20020;-86
2020/12/14 10:36:11;;;;;;;118.43;48.50;;;1.80;99.90;;;;;;5076371;28;20035;-86
2020/12/14 10:38:37;;;;;;;87.63;36.72;;;1.90;99.90;;;;;;5095867;28;20020;-86
2020/12/14 10:41:03;;;;;;;107.53;44.50;;;1.80;99.90;;;;;;5095167;28;20606;-85
2020/12/14 10:43:29;;;;;;;84.55;33.58;;;1.90;99.90;;;;;;5095237;28;20103;-86
2020/12/14 10:45:55;;;;;;;84.88;32.50;;;1.90;99.90;;;;;;5094653;28;20481;-85
2020/12/14 10:48:21;;;;;;;76.05;33.30;;;1.90;99.90;;;;;;5093969;28;20035;-86
2020/12/14 10:50:46;;;;;;;88.80;38.05;;;1.90;99.90;;;;;;5095778;28;20024;-85
2020/12/14 10:53:12;;;;;;;87.75;36.78;;;1.90;99.90;;;;;;5093883;28;20036;-85
2020/12/14 10:55:38;;;;;;;80.68;31.20;;;2.00;99.90;;;;;;5095197;28;20028;-85
2020/12/14 10:58:04;;;;;;;87.07;31.08;;;1.90;99.90;;;;;;5094128;28;20036;-86
2020/12/14 11:00:30;;;;;;;81.30;34.40;;;2.00;99.90;;;;;;5093990;28;20095;-84
2020/12/14 11:02:59;;;;;;;82.03;35.65;;;2.10;99.90;;;;;;5076479;28;20103;-86
2020/12/14 11:05:25;;;;;;;95.50;36.20;;;2.10;99.90;;;;;;5096236;28;20470;-85
2020/12/14 11:07:51;;;;;;;81.25;32.47;;;2.10;99.90;;;;;;5076556;28;20020;-87
2020/12/14 11:10:16;;;;;;;119.80;46.38;;;2.10;99.90;;;;;;5076109;28;20023;-84
2020/12/14 11:12:42;;;;;;;86.88;35.05;;;2.20;99.90;;;;;;5094246;28;20020;-86
2020/12/14 11:15:09;;;;;;;97.60;39.10;;;2.20;99.90;;;;;;5110035;28;20032;-86
2020/12/14 11:17:38;;;;;;;91.30;38.15;;;2.20;99.90;;;;;;5047460;28;20451;-86
2020/12/14 11:20:06;;;;;;;78.15;30.58;;;2.10;99.90;;;;;;5065241;28;20086;-87
2020/12/14 11:22:32;;;;;;;67.05;27.42;;;2.10;99.90;;;;;;5071903;28;20024;-87
2020/12/14 11:24:58;;;;;;;70.85;28.55;;;2.10;99.90;;;;;;5057239;28;20470;-87
2020/12/14 11:27:23;;;;;;;71.32;29.30;;;2.10;99.90;;;;;;5056530;28;20028;-88
2020/12/14 11:29:49;;;;;;;71.40;32.08;;;2.10;99.90;;;;;;5049600;28;20020;-86
2020/12/14 11:32:15;;;;;;;67.05;28.95;;;2.20;99.90;;;;;;5068968;28;20030;-87
2020/12/14 11:34:41;;;;;;;69.32;29.80;;;2.10;99.90;;;;;;5055672;28;20063;-84
2020/12/14 11:37:07;;;;;;;69.72;30.13;;;2.10;99.90;;;;;;5055313;28;20032;-87
2020/12/14 11:39:32;;;;;;;54.05;23.33;;;2.20;99.90;;;;;;5055547;28;20466;-87
2020/12/14 11:42:00;;;;;;;52.33;21.88;;;2.20;99.90;;;;;;5073299;28;20478;-87
2020/12/14 11:44:25;;;;;;;54.10;21.63;;;2.20;99.90;;;;;;5073265;28;20570;-87
2020/12/14 11:46:52;;;;;;;57.85;23.25;;;2.20;99.90;;;;;;5089807;28;20123;-88
2020/12/14 11:49:19;;;;;;;52.70;23.63;;;2.30;99.90;;;;;;5089448;28;20040;-87
2020/12/14 11:51:45;;;;;;;47.58;22.63;;;2.30;99.90;;;;;;5073153;28;20033;-87
2020/12/14 11:54:11;;;;;;;53.50;22.95;;;2.30;99.90;;;;;;5089592;28;20124;-86
2020/12/14 11:56:37;;;;;;;47.63;20.52;;;2.30;99.90;;;;;;5089157;28;20032;-87
2020/12/14 11:59:03;;;;;;;51.33;22.95;;;2.30;99.90;;;;;;5072982;28;20051;-87
2020/12/14 12:01:29;;;;;;;74.47;26.13;;;2.30;99.90;;;;;;5073576;28;20025;-85
2020/12/14 12:03:55;;;;;;;75.38;30.30;;;2.30;99.90;;;;;;5073886;28;20042;-86
2020/12/14 12:06:27;;;;;;;69.20;26.55;;;2.30;99.90;;;;;;5056054;28;20486;-86
2020/12/14 12:08:53;;;;;;;75.65;29.52;;;2.30;99.90;;;;;;5048593;28;20025;-86
2020/12/14 12:11:18;;;;;;;59.50;25.55;;;2.30;99.90;;;;;;5070716;28;20099;-86
2020/12/14 12:13:44;;;;;;;57.00;26.35;;;2.30;99.90;;;;;;5054417;28;20028;-87
2020/12/14 12:16:10;;;;;;;53.45;25.92;;;2.40;99.90;;;;;;5073741;28;20059;-87
2020/12/14 12:18:37;;;;;;;41.80;19.60;;;2.40;99.90;;;;;;5055505;28;20119;-87
2020/12/14 12:21:03;;;;;;;52.10;21.88;;;2.40;99.90;;;;;;5070854;28;20035;-85
2020/12/14 12:23:29;;;;;;;48.47;21.48;;;2.40;99.90;;;;;;5088702;28;20040;-88
2020/12/14 12:25:55;;;;;;;48.58;23.48;;;2.30;99.90;;;;;;5057167;28;20099;-86
2020/12/14 12:28:20;;;;;;;42.53;19.33;;;2.40;99.90;;;;;;5088088;28;20147;-85
2020/12/14 12:30:46;;;;;;;47.08;19.95;;;2.40;99.90;;;;;;5072961;28;20440;-85
2020/12/14 12:33:12;;;;;;;42.45;16.85;;;2.40;99.90;;;;;;5056117;28;20024;-84
2020/12/14 12:35:37;;;;;;;33.30;16.65;;;2.30;99.90;;;;;;5054542;28;20115;-85